Airfield :
LOGIN :

Register | Disclaimer

   EN    FR    IT 

 










Legend :    VFR   Marginal VFR   IFR   Intensive IFR   Very Intensive IFR
Visi :
Ceiling :
>= 8 km
>= 3000ft
5 to 8 km
1000 to 3000 ft
1500m to 5 km
500 to 1000 ft
800 to 1500m
200 to 500 ft
< 800m
< 200 ft
Symbols :   Thunderstorms  Fog  Heavy snow  Heavy precipitations  Wind > 20 kt
SIGMETs :     Misc.  Thunderstorms  Icing  Turbulence  Mountain Waves  Volcanic Ashes







- Airport Elevation : 56 ft
- IATA code : ILY
- Download approach charts


EGPI - Islay

CURRENT METAR :
  • 251420Z 14007KT 110V180 9999 FEW033 BKN039 BKN044 10/08 Q0995

EXPIRED METARs :
  • 251350Z 15012KT 110V180 9999 -RA BKN036 11/08 Q0995
  • 251320Z 14013KT 100V170 9999 BKN046 13/07 Q0995
  • 251250Z 13013KT 080V170 CAVOK 15/07 Q0994
  • 251220Z 12013KT 080V170 CAVOK 15/08 Q0994
  • 251150Z 13013KT 100V160 CAVOK 15/08 Q0995

TAF TAF EGPI
Valid from the 25 at 15:00 until the 25 at 18:00 UTC


251405Z 2515/2518 14012KT 9999 SCT020
TEMPO 2515/2518 6000 SHRA
PROB30
TEMPO 2515/2517 4000 +SHRA BKN014
No reported NOTAMs for that airfield.



MET'MAP, your aeronautical weather chart ! - Copyright ORBIFLY December 2007 - Disclaimer

ORBIFLY MET'MAP TEAM :

Programming & Development : Alexandra Zaïnal
Concept & Development : Baudouin d'Aumeries
Co-Development & Prog : Marc-Olivier Méhu
Technical & hardware support : Manuel Goepfert

Contact : metmap@orbifly.com




SOURCES & CREDITS :

   NOAA